createdAt,value
2022-11-23T00:00:18.692Z,7.10
2022-11-23T00:10:20.190Z,7.43
2022-11-23T00:20:21.623Z,7.00
2022-11-23T00:30:23.087Z,6.57
2022-11-23T00:40:24.555Z,6.87
2022-11-23T00:50:26.198Z,6.40
2022-11-23T01:00:27.640Z,6.37
2022-11-23T01:10:32.368Z,7.53
2022-11-23T01:20:34.886Z,8.17
2022-11-23T01:30:36.424Z,8.53
2022-11-23T01:40:42.903Z,8.27
2022-11-23T01:50:47.139Z,8.23
2022-11-23T02:00:49.998Z,9.43
2022-11-23T02:10:52.287Z,10.67
2022-11-23T02:20:54.968Z,9.50
2022-11-23T02:30:56.445Z,10.80
2022-11-23T02:40:58.773Z,10.10
2022-11-23T02:51:00.208Z,10.70
2022-11-23T03:01:02.182Z,10.57
2022-11-23T03:11:05.323Z,11.47
2022-11-23T03:21:10.085Z,11.50
2022-11-23T03:31:13.507Z,11.73
2022-11-23T03:41:16.434Z,12.40
2022-11-23T03:51:26.032Z,13.63
2022-11-23T04:01:27.621Z,12.87
2022-11-23T04:11:35.025Z,13.20
2022-11-23T04:21:36.576Z,14.57
2022-11-23T04:31:38.536Z,12.93
2022-11-23T04:41:52.427Z,15.80
2022-11-23T04:51:55.123Z,12.23
2022-11-23T05:02:03.713Z,11.47
2022-11-23T05:12:31.498Z,11.33
2022-11-23T05:22:33.867Z,10.13
2022-11-23T05:32:35.495Z,9.30
2022-11-23T05:42:37.288Z,9.50
2022-11-23T05:52:47.594Z,9.93
2022-11-23T06:02:49.249Z,9.53
2022-11-23T06:12:51.667Z,12.23
2022-11-23T06:22:55.309Z,11.63
2022-11-23T06:33:04.639Z,11.10
2022-11-23T06:43:11.757Z,9.97
2022-11-23T06:53:17.132Z,10.40
2022-11-23T07:03:25.850Z,9.67
2022-11-23T07:13:34.852Z,9.53
2022-11-23T07:23:40.656Z,9.00
2022-11-23T07:33:46.726Z,8.97
2022-11-23T07:43:48.355Z,8.13
2022-11-23T07:53:50.023Z,8.03
2022-11-23T08:03:51.498Z,7.53
2022-11-23T08:13:53.153Z,8.00
2022-11-23T08:23:54.607Z,7.50
2022-11-23T08:34:00.283Z,7.10
2022-11-23T08:44:05.239Z,7.47
2022-11-23T08:54:06.708Z,7.03
2022-11-23T09:04:08.185Z,7.53
2022-11-23T09:14:09.711Z,6.10
2022-11-23T09:24:12.260Z,7.53
2022-11-23T09:34:18.187Z,5.87
2022-11-23T09:44:22.685Z,5.97
2022-11-23T09:54:34.018Z,7.57
2022-11-23T10:04:35.882Z,6.13
2022-11-23T10:15:10.987Z,5.40
2022-11-23T10:25:18.949Z,5.53
2022-11-23T10:35:32.634Z,8.30
2022-11-23T10:45:34.292Z,3.90
2022-11-23T10:55:54.957Z,4.57
2022-11-23T11:06:13.159Z,4.17
2022-11-23T11:16:36.399Z,9.30
2022-11-23T11:26:49.288Z,11.37
2022-11-23T11:36:56.089Z,11.10
2022-11-23T11:47:03.485Z,9.33
2022-11-23T11:57:34.131Z,4.47
2022-11-23T12:07:57.268Z,3.60
2022-11-23T12:18:18.439Z,3.40
2022-11-23T12:29:00.407Z,3.87
2022-11-23T12:39:18.358Z,3.23
2022-11-23T12:49:41.734Z,4.37
2022-11-23T12:59:47.059Z,3.37
2022-11-23T13:10:10.668Z,3.30
2022-11-23T13:20:30.584Z,3.07
2022-11-23T13:31:07.138Z,4.00
2022-11-23T13:40:59.021Z,3.23
2022-11-23T13:51:01.624Z,3.07
2022-11-23T14:01:03.442Z,2.50
2022-11-23T14:11:15.892Z,3.50
2022-11-23T14:21:32.838Z,2.03
2022-11-23T14:31:34.767Z,2.50
2022-11-23T14:41:37.680Z,3.80
2022-11-23T14:51:43.470Z,6.13
2022-11-23T15:02:13.199Z,3.97
2022-11-23T15:12:22.218Z,5.27
2022-11-23T15:22:24.671Z,4.27
2022-11-23T15:32:31.902Z,6.00
2022-11-23T15:42:34.606Z,3.50
2022-11-23T15:52:38.106Z,4.50
2022-11-23T16:02:39.789Z,5.33
2022-11-23T16:12:56.456Z,7.73
2022-11-23T16:23:00.264Z,6.13
2022-11-23T16:33:01.755Z,6.47
2022-11-23T16:43:04.117Z,5.70
2022-11-23T16:53:13.783Z,5.50
2022-11-23T17:03:19.757Z,6.23
2022-11-23T17:13:28.589Z,6.23
2022-11-23T17:23:30.078Z,6.93
2022-11-23T17:33:31.571Z,7.00
2022-11-23T17:43:32.997Z,11.53
2022-11-23T17:53:34.409Z,14.70
2022-11-23T18:03:35.956Z,18.30
2022-11-23T18:13:38.247Z,22.67
2022-11-23T18:23:41.354Z,21.40
2022-11-23T18:33:43.214Z,24.90
2022-11-23T18:43:45.102Z,25.00
2022-11-23T18:53:47.711Z,28.70
2022-11-23T19:03:52.047Z,30.30
2022-11-23T19:13:55.959Z,30.50
2022-11-23T19:23:58.711Z,29.63
2022-11-23T19:34:02.490Z,28.33
2022-11-23T19:44:04.493Z,25.20
2022-11-23T19:54:06.805Z,26.43
2022-11-23T20:04:10.387Z,23.53
2022-11-23T20:14:12.584Z,19.50
2022-11-23T20:24:14.687Z,19.63
2022-11-23T20:34:32.045Z,23.37
2022-11-23T20:44:34.299Z,17.77
2022-11-23T20:54:36.388Z,16.33
2022-11-23T21:04:38.348Z,10.67
2022-11-23T21:14:40.197Z,7.20
2022-11-23T21:24:41.687Z,6.10
2022-11-23T21:34:43.171Z,4.80
2022-11-23T21:44:44.673Z,6.10
2022-11-23T21:54:49.114Z,5.60
2022-11-23T22:04:50.940Z,5.10
2022-11-23T22:14:53.688Z,5.00
2022-11-23T22:24:55.117Z,4.63
2022-11-23T22:34:56.557Z,4.67
2022-11-23T22:44:59.202Z,4.10
2022-11-23T22:55:00.685Z,4.40
2022-11-23T23:05:02.160Z,4.10
2022-11-23T23:15:04.035Z,4.00
2022-11-23T23:25:07.988Z,4.70
2022-11-23T23:35:10.275Z,5.83
2022-11-23T23:45:11.726Z,6.17
2022-11-23T23:55:13.161Z,7.13
